TFM - Tactical Decision Aid
ID: Runway Winds: CIG/VIS Threshold:

KMSP - Minneapolis-St Paul, MN, US

Updated at: 1224 UTC 25 Jun 2019
Latest TAF at: 1120 UTC 25 Jun 2019

TAF Board

Time1153Z 25/13Z 25/14Z 25/15Z 25/16Z 25/17Z 25/18Z 25/19Z 25/20Z 25/21Z 25/22Z 25/23Z 26/00Z 26/01Z>>
Type OBS PRVL PRVL PRVL PRVL PRVL PRVL PRVL PRVL PRVL PRVL PRVL PRVL PRVL
VIS 10 >6 >6 >6 >6 >6 >6 >6 >6 >6 >6 >6 >6 >6
CIG -- -- -- -- -- -- -- -- -- -- -- -- -- --
Cover FEW SCT SCT SCT SCT FEW FEW FEW FEW FEW FEW FEW FEW SKC
FltCat VFR VFR VFR VFR VFR VFR VFR VFR VFR VFR VFR VFR VFR VFR
WX -- -- -- -- -- -- -- -- -- -- -- -- -- --
WDir 230 230 230 230 230 270 270 270 270 270 270 270 270 270
WSpd 8 6 6 6 6 13 13 13 13 13 13 13 13 9
WGst -- -- -- -- -- 22 22 22 22 22 22 22 22 --

TDA Impact Legend

  None Marginal Slight Moderate High
Visibility (sm) >5 3≤X≤5 1≤X<3 0.5≤X<1 <0.5
Ceiling (100 ft) >30 10≤X≤30 4≤X<10 2≤X<4 <2
Wind Speed (kt) <15 15≤X<25 25≤X<30 ≥30
Wind Gust (kt) <15 15≤X<25 25≤X<35 ≥35
Weather No Wx Reported VCTS -TS,-FZRA TS,FZRA +TS,+FZRA
TAF
KMSP 251120Z 2512/2618 23006KT P6SM FEW100 SCT250
  FM251700 27013G22KT P6SM FEW050
  FM260100 27009KT P6SM SKC
  FM261000 25005KT P6SM SCT250
  FM261600 23007KT P6SM SCT070 BKN180


METAR
KMSP 251153Z 23008KT 10SM FEW100 FEW250 17/13 A2972 RMK AO2 SLP061 70001 T01720128 10172 20161 53015
KMSP 251053Z 23004KT 10SM SCT100 17/13 A2970 RMK AO2 SLP054 T01670133
KMSP 250953Z 22006KT 10SM FEW100 17/14 A2968 RMK AO2 SLP048 T01670139

Radar Display
Forecast Discussion